Terminal Aerodrome Forecast
Issued by NWS

Home | Current Version | Previous Version | Text Only | Print | Product List | Glossary On
Versions: 1 2 3 4 5 6 7 8 9 10 11 12 13 14 15 16 17
000
FTUS41 KPBZ 230844 AAA
TAFMGW
TAF AMD
KMGW 230844Z 2309/2406 20008KT P6SM -SHRA OVC025
     FM231000 21008KT 5SM -SHRA BR OVC015
     FM231700 23015G26KT 5SM SHRA VCTS OVC035CB
     FM240000 23013G23KT 3SM SHRA VCTS OVC015CB=

USA.gov is the U.S. government's official web portal to all federal, state and local government web resources and services.